createdAt,value
2018-08-22T00:02:03.296Z,6.00
2018-08-22T00:04:31.464Z,5.60
2018-08-22T00:06:59.624Z,5.93
2018-08-22T00:09:27.781Z,5.80
2018-08-22T00:11:55.925Z,5.83
2018-08-22T00:14:24.072Z,6.50
2018-08-22T00:16:52.221Z,5.60
2018-08-22T00:19:20.374Z,5.40
2018-08-22T00:21:48.509Z,5.67
2018-08-22T00:24:16.698Z,6.20
2018-08-22T00:26:44.604Z,5.20
2018-08-22T00:29:12.824Z,5.73
2018-08-22T00:31:40.937Z,5.77
2018-08-22T00:34:08.861Z,5.70
2018-08-22T00:36:37.021Z,5.60
2018-08-22T00:39:06.285Z,6.10
2018-08-22T00:41:34.437Z,5.37
2018-08-22T00:44:02.372Z,5.40
2018-08-22T00:46:30.511Z,6.10
2018-08-22T00:48:58.424Z,5.60
2018-08-22T00:51:26.640Z,6.20
2018-08-22T00:53:54.795Z,5.40
2018-08-22T00:56:22.945Z,5.07
2018-08-22T00:58:50.864Z,5.83
2018-08-22T01:01:18.776Z,6.30
2018-08-22T01:03:46.945Z,5.13
2018-08-22T01:06:15.118Z,6.53
2018-08-22T01:08:43.284Z,6.13
2018-08-22T01:11:11.448Z,6.00
2018-08-22T01:13:39.622Z,5.70
2018-08-22T01:16:07.776Z,5.60
2018-08-22T01:18:35.942Z,6.00
2018-08-22T01:21:04.142Z,5.50
2018-08-22T01:23:32.300Z,5.97
2018-08-22T01:26:00.460Z,6.00
2018-08-22T01:28:28.625Z,5.13
2018-08-22T01:30:56.780Z,6.00
2018-08-22T01:33:24.967Z,6.30
2018-08-22T01:35:53.224Z,5.90
2018-08-22T01:38:21.366Z,6.37
2018-08-22T01:40:49.518Z,6.30
2018-08-22T01:43:17.421Z,6.13
2018-08-22T01:45:45.567Z,5.87
2018-08-22T01:48:13.711Z,6.30
2018-08-22T01:50:41.858Z,5.90
2018-08-22T01:53:10.033Z,5.90
2018-08-22T01:55:38.169Z,6.33
2018-08-22T01:58:06.313Z,6.97
2018-08-22T02:00:34.487Z,6.20
2018-08-22T02:03:02.642Z,6.27
2018-08-22T02:05:30.795Z,5.87
2018-08-22T02:07:58.928Z,6.20
2018-08-22T02:10:26.855Z,5.87
2018-08-22T02:12:55.009Z,6.53
2018-08-22T02:15:23.146Z,5.53
2018-08-22T02:17:51.281Z,5.33
2018-08-22T02:20:19.441Z,5.90
2018-08-22T02:22:47.590Z,5.60
2018-08-22T02:25:15.750Z,6.13
2018-08-22T02:27:43.861Z,5.60
2018-08-22T02:30:12.014Z,5.73
2018-08-22T02:32:40.177Z,5.87
2018-08-22T02:35:08.325Z,5.70
2018-08-22T02:37:36.469Z,6.30
2018-08-22T02:40:04.420Z,5.90
2018-08-22T02:42:32.584Z,6.90
2018-08-22T02:45:00.739Z,5.47
2018-08-22T02:47:28.656Z,6.07
2018-08-22T02:49:56.820Z,5.90
2018-08-22T02:52:24.977Z,6.67
2018-08-22T02:54:53.154Z,6.10
2018-08-22T02:57:21.319Z,5.93
2018-08-22T02:59:49.474Z,6.60
2018-08-22T03:02:17.652Z,5.93
2018-08-22T03:04:45.564Z,5.40
2018-08-22T03:07:13.714Z,5.90
2018-08-22T03:09:41.862Z,6.50
2018-08-22T03:12:10.007Z,6.80
2018-08-22T03:14:38.225Z,6.47
2018-08-22T03:17:06.428Z,6.57
2018-08-22T03:19:34.589Z,6.53
2018-08-22T03:22:02.737Z,6.90
2018-08-22T03:24:30.894Z,7.60
2018-08-22T03:26:59.043Z,5.90
2018-08-22T03:29:27.176Z,6.50
2018-08-22T03:31:55.108Z,6.60
2018-08-22T03:34:23.029Z,6.20
2018-08-22T03:36:51.172Z,6.63
2018-08-22T03:39:19.082Z,6.70
2018-08-22T03:41:47.010Z,5.50
2018-08-22T03:44:15.164Z,6.10
2018-08-22T03:46:43.301Z,6.80
2018-08-22T03:49:11.445Z,6.30
2018-08-22T03:51:39.614Z,5.60
2018-08-22T03:54:07.524Z,5.93
2018-08-22T03:56:35.681Z,5.70
2018-08-22T03:59:03.829Z,6.60
2018-08-22T04:01:31.978Z,7.10
2018-08-22T04:04:00.136Z,6.60
2018-08-22T04:06:28.287Z,6.50
2018-08-22T04:08:56.435Z,5.90
2018-08-22T04:11:24.591Z,7.00
2018-08-22T04:13:52.743Z,6.40
2018-08-22T04:16:20.897Z,5.93
2018-08-22T04:18:49.042Z,6.33
2018-08-22T04:21:17.185Z,6.80
2018-08-22T04:23:45.336Z,6.20
2018-08-22T04:26:13.491Z,6.63
2018-08-22T04:28:41.649Z,6.77
2018-08-22T04:31:09.827Z,6.73
2018-08-22T04:33:37.756Z,6.20
2018-08-22T04:36:05.917Z,6.60
2018-08-22T04:38:34.088Z,6.77
2018-08-22T04:41:02.243Z,6.57
2018-08-22T04:43:30.406Z,6.30
2018-08-22T04:45:58.324Z,6.30
2018-08-22T04:48:26.481Z,6.33
2018-08-22T04:50:54.654Z,6.90
2018-08-22T04:53:22.989Z,6.23
2018-08-22T04:55:50.920Z,6.47
2018-08-22T04:58:18.836Z,6.93
2018-08-22T05:00:47.000Z,6.77
2018-08-22T05:03:15.199Z,6.23
2018-08-22T05:05:43.365Z,6.10
2018-08-22T05:08:11.520Z,8.90
2018-08-22T05:10:39.730Z,6.33
2018-08-22T05:13:07.907Z,6.43
2018-08-22T05:15:36.070Z,5.57
2018-08-22T05:18:04.249Z,6.60
2018-08-22T05:20:32.426Z,6.83
2018-08-22T05:23:00.605Z,6.50
2018-08-22T05:25:28.777Z,7.67
2018-08-22T05:27:56.940Z,6.97
2018-08-22T05:30:25.114Z,6.73
2018-08-22T05:32:53.297Z,6.70
2018-08-22T05:35:21.441Z,6.90
2018-08-22T05:37:49.597Z,6.90
2018-08-22T05:40:17.835Z,7.17
2018-08-22T05:42:45.993Z,7.27
2018-08-22T05:45:14.155Z,7.27
2018-08-22T05:47:42.309Z,6.97
2018-08-22T05:50:10.470Z,6.37
2018-08-22T05:52:38.422Z,7.20
2018-08-22T05:55:06.570Z,6.60
2018-08-22T05:57:34.857Z,7.37
2018-08-22T06:00:02.969Z,6.03
2018-08-22T06:02:31.162Z,6.90
2018-08-22T06:04:59.338Z,7.03
2018-08-22T06:07:27.492Z,7.17
2018-08-22T06:09:55.409Z,7.10
2018-08-22T06:12:23.725Z,7.70
2018-08-22T06:14:51.896Z,7.30
2018-08-22T06:17:20.320Z,6.80
2018-08-22T06:19:48.369Z,6.40
2018-08-22T06:22:16.738Z,7.17
2018-08-22T06:24:44.900Z,6.73
2018-08-22T06:27:13.042Z,6.23
2018-08-22T06:29:41.204Z,6.53
2018-08-22T06:32:09.340Z,6.20
2018-08-22T06:34:37.605Z,6.50
2018-08-22T06:37:06.061Z,5.40
2018-08-22T06:39:34.227Z,5.00
2018-08-22T06:42:02.386Z,5.27
2018-08-22T06:44:30.532Z,5.57
2018-08-22T06:46:58.678Z,5.40
2018-08-22T06:49:26.846Z,6.23
2018-08-22T06:51:55.006Z,5.73
2018-08-22T06:54:23.223Z,5.50
2018-08-22T06:56:51.381Z,5.30
2018-08-22T06:59:20.187Z,6.00
2018-08-22T07:01:48.369Z,5.60
2018-08-22T07:04:16.685Z,6.40
2018-08-22T07:06:44.624Z,5.90
2018-08-22T07:09:13.030Z,5.83
2018-08-22T07:11:41.220Z,6.30
2018-08-22T07:14:09.769Z,5.53
2018-08-22T07:16:38.134Z,5.47
2018-08-22T07:19:06.108Z,6.30
2018-08-22T07:21:34.050Z,5.90
2018-08-22T07:24:02.021Z,5.40
2018-08-22T07:26:30.074Z,6.10
2018-08-22T07:28:58.313Z,5.57
2018-08-22T07:31:26.450Z,5.83
2018-08-22T07:33:54.599Z,6.20
2018-08-22T07:36:22.776Z,5.30
2018-08-22T07:38:50.694Z,5.70
2018-08-22T07:41:18.870Z,6.07
2018-08-22T07:43:46.808Z,6.23
2018-08-22T07:46:14.945Z,6.37
2018-08-22T07:48:43.122Z,6.43
2018-08-22T07:51:11.278Z,5.87
2018-08-22T07:53:39.402Z,6.20
2018-08-22T07:56:07.557Z,6.97
2018-08-22T07:58:45.635Z,6.30
2018-08-22T08:01:13.783Z,7.20
2018-08-22T08:03:41.931Z,5.63
2018-08-22T08:06:10.087Z,6.30
2018-08-22T08:08:38.263Z,5.90
2018-08-22T08:11:06.485Z,5.90
2018-08-22T08:13:34.541Z,6.10
2018-08-22T08:16:02.692Z,6.03
2018-08-22T08:18:30.839Z,5.93
2018-08-22T08:20:58.989Z,6.23
2018-08-22T08:23:27.136Z,5.87
2018-08-22T08:25:55.270Z,6.07
2018-08-22T08:28:23.429Z,6.27
2018-08-22T08:30:51.590Z,5.80
2018-08-22T08:33:19.783Z,6.23
2018-08-22T08:35:47.965Z,5.83
2018-08-22T08:38:16.151Z,5.00
2018-08-22T08:40:44.299Z,6.20
2018-08-22T08:43:12.499Z,5.70
2018-08-22T08:45:41.100Z,5.70
2018-08-22T08:48:09.499Z,5.30
2018-08-22T08:50:37.806Z,5.87
2018-08-22T08:53:06.080Z,5.80
2018-08-22T08:55:34.223Z,5.80
2018-08-22T08:58:02.391Z,5.60
2018-08-22T09:00:30.577Z,5.13
2018-08-22T09:02:58.761Z,5.33
2018-08-22T09:05:26.927Z,5.70
2018-08-22T09:07:55.098Z,6.07
2018-08-22T09:10:23.259Z,5.40
2018-08-22T09:12:51.497Z,5.20
2018-08-22T09:15:19.675Z,5.30
2018-08-22T09:17:47.881Z,5.93
2018-08-22T09:20:16.043Z,5.77
2018-08-22T09:22:44.214Z,5.90
2018-08-22T09:25:12.394Z,5.10
2018-08-22T09:27:40.661Z,6.43
2018-08-22T09:30:08.833Z,6.27
2018-08-22T09:32:37.013Z,5.77
2018-08-22T09:35:05.229Z,5.37
2018-08-22T09:37:33.421Z,5.83
2018-08-22T09:40:01.784Z,5.27
2018-08-22T09:42:29.632Z,5.23
2018-08-22T09:44:57.825Z,5.20
2018-08-22T09:47:26.634Z,5.57
2018-08-22T09:49:54.846Z,5.27
2018-08-22T09:52:23.050Z,6.00
2018-08-22T09:57:35.935Z,5.47
2018-08-22T10:00:04.760Z,5.53
2018-08-22T10:02:32.981Z,6.07
2018-08-22T10:05:01.157Z,5.87
2018-08-22T10:07:29.364Z,5.30
2018-08-22T10:09:57.578Z,5.60
2018-08-22T10:12:25.704Z,5.60
2018-08-22T10:14:53.876Z,5.77
2018-08-22T10:17:22.094Z,5.40
2018-08-22T10:19:50.217Z,5.77
2018-08-22T10:22:18.374Z,5.87
2018-08-22T10:24:46.530Z,5.57
2018-08-22T10:27:14.694Z,6.13
2018-08-22T10:29:42.860Z,5.77
2018-08-22T10:32:11.053Z,6.13
2018-08-22T10:34:39.213Z,5.60
2018-08-22T10:37:07.373Z,5.97
2018-08-22T10:39:35.578Z,5.90
2018-08-22T10:42:03.709Z,6.50
2018-08-22T10:44:31.972Z,5.60
2018-08-22T10:47:00.021Z,5.50
2018-08-22T10:49:28.178Z,5.50
2018-08-22T10:51:56.404Z,5.73
2018-08-22T10:54:24.582Z,5.87
2018-08-22T10:56:52.712Z,6.40
2018-08-22T10:59:20.865Z,6.60
2018-08-22T11:01:49.031Z,6.10
2018-08-22T11:04:17.153Z,6.00
2018-08-22T11:06:45.304Z,5.93
2018-08-22T11:09:13.460Z,6.27
2018-08-22T11:11:41.621Z,6.60
2018-08-22T11:14:09.911Z,6.87
2018-08-22T11:16:38.254Z,6.43
2018-08-22T11:19:06.487Z,6.23
2018-08-22T11:21:46.076Z,5.60
2018-08-22T11:24:25.768Z,5.40
2018-08-22T11:26:59.443Z,6.23
2018-08-22T11:29:39.053Z,6.23
2018-08-22T11:32:12.651Z,5.50
2018-08-22T11:34:42.321Z,5.83
2018-08-22T11:37:11.690Z,6.30
2018-08-22T11:39:39.672Z,6.30
2018-08-22T11:42:07.914Z,6.60
2018-08-22T11:44:36.095Z,5.70
2018-08-22T11:47:04.010Z,6.40
2018-08-22T11:49:32.558Z,6.10
2018-08-22T11:52:00.719Z,6.10
2018-08-22T11:54:29.336Z,6.23
2018-08-22T11:56:57.476Z,6.47
2018-08-22T11:59:25.390Z,7.37
2018-08-22T12:01:53.578Z,6.23
2018-08-22T12:04:21.809Z,6.20
2018-08-22T12:06:50.377Z,6.17
2018-08-22T12:09:18.523Z,6.90
2018-08-22T12:11:46.685Z,5.80
2018-08-22T12:14:14.824Z,6.70
2018-08-22T12:16:42.997Z,6.13
2018-08-22T12:19:11.557Z,6.67
2018-08-22T12:21:40.540Z,6.07
2018-08-22T12:24:08.702Z,5.90
2018-08-22T12:26:36.876Z,6.10
2018-08-22T12:29:05.159Z,5.87
2018-08-22T12:31:33.790Z,6.37
2018-08-22T12:34:02.108Z,5.80
2018-08-22T12:36:30.278Z,5.43
2018-08-22T12:38:58.451Z,6.50
2018-08-22T12:41:26.759Z,6.30
2018-08-22T12:43:55.140Z,5.53
2018-08-22T12:46:23.363Z,6.10
2018-08-22T12:48:51.517Z,5.50
2018-08-22T12:51:19.844Z,6.20
2018-08-22T12:53:47.993Z,6.60
2018-08-22T12:56:16.144Z,5.37
2018-08-22T12:58:44.321Z,5.60
2018-08-22T13:01:12.504Z,6.20
2018-08-22T13:03:40.727Z,6.20
2018-08-22T13:06:08.831Z,6.03
2018-08-22T13:08:36.740Z,5.60
2018-08-22T13:11:05.004Z,6.10
2018-08-22T13:13:32.873Z,6.43
2018-08-22T13:16:00.791Z,5.80
2018-08-22T13:18:28.929Z,5.77
2018-08-22T13:20:57.097Z,5.17
2018-08-22T13:23:25.035Z,5.27
2018-08-22T13:25:53.221Z,5.87
2018-08-22T13:28:21.405Z,5.10
2018-08-22T13:30:49.563Z,5.80
2018-08-22T13:33:17.739Z,6.13
2018-08-22T13:35:45.653Z,6.40
2018-08-22T13:38:13.826Z,5.90
2018-08-22T13:40:41.977Z,6.17
2018-08-22T13:43:10.132Z,6.00
2018-08-22T13:45:38.281Z,6.30
2018-08-22T13:48:06.632Z,5.23
2018-08-22T13:50:34.563Z,6.03
2018-08-22T13:53:02.742Z,6.20
2018-08-22T13:55:30.884Z,6.10
2018-08-22T13:57:59.062Z,6.27
2018-08-22T14:00:27.234Z,5.53
2018-08-22T14:02:55.911Z,6.90
2018-08-22T14:05:23.824Z,6.30
2018-08-22T14:07:51.801Z,6.50
2018-08-22T14:10:19.948Z,6.70
2018-08-22T14:12:48.097Z,5.73
2018-08-22T14:15:16.301Z,6.20
2018-08-22T14:17:44.582Z,5.67
2018-08-22T14:20:12.739Z,6.27
2018-08-22T14:22:40.688Z,6.03
2018-08-22T14:25:08.846Z,5.10
2018-08-22T14:27:36.776Z,5.53
2018-08-22T14:30:05.982Z,6.87
2018-08-22T14:32:34.197Z,5.90
2018-08-22T14:35:02.373Z,6.00
2018-08-22T14:37:30.546Z,6.23
2018-08-22T14:39:58.707Z,6.13
2018-08-22T14:42:26.897Z,6.33
2018-08-22T14:44:55.087Z,6.60
2018-08-22T14:47:23.180Z,5.93
2018-08-22T14:49:51.103Z,6.70
2018-08-22T14:52:19.329Z,6.03
2018-08-22T14:54:47.545Z,6.80
2018-08-22T14:57:15.721Z,6.20
2018-08-22T14:59:43.865Z,6.63
2018-08-22T15:02:12.029Z,6.00
2018-08-22T15:04:40.958Z,6.10
2018-08-22T15:07:08.872Z,5.93
2018-08-22T15:09:36.793Z,6.80
2018-08-22T15:12:05.049Z,6.83
2018-08-22T15:14:33.053Z,6.80
2018-08-22T15:17:01.178Z,5.60
2018-08-22T15:19:29.345Z,6.00
2018-08-22T15:21:57.664Z,6.13
2018-08-22T15:24:25.844Z,6.80
2018-08-22T15:26:53.995Z,6.30
2018-08-22T15:29:21.931Z,7.00
2018-08-22T15:31:49.925Z,6.70
2018-08-22T15:34:17.878Z,6.10
2018-08-22T15:36:46.070Z,7.00
2018-08-22T15:39:14.281Z,6.60
2018-08-22T15:41:42.691Z,6.40
2018-08-22T15:44:10.880Z,6.20
2018-08-22T15:46:39.059Z,5.33
2018-08-22T15:49:07.001Z,6.67
2018-08-22T15:51:35.156Z,6.17
2018-08-22T15:54:07.843Z,6.07
2018-08-22T15:56:37.249Z,6.53
2018-08-22T15:59:05.469Z,6.20
2018-08-22T16:01:33.650Z,5.30
2018-08-22T16:04:01.860Z,5.27
2018-08-22T16:06:30.053Z,4.57
2018-08-22T16:08:58.243Z,5.53
2018-08-22T16:11:26.397Z,5.03
2018-08-22T16:13:54.567Z,5.07
2018-08-22T16:16:22.730Z,5.57
2018-08-22T16:18:50.938Z,6.17
2018-08-22T16:21:19.109Z,6.27
2018-08-22T16:23:47.052Z,6.30
2018-08-22T16:26:15.201Z,6.67
2018-08-22T16:28:56.131Z,6.43
2018-08-22T16:31:29.438Z,7.10
2018-08-22T16:33:57.406Z,6.40
2018-08-22T16:36:28.630Z,5.90
2018-08-22T16:38:56.969Z,5.53
2018-08-22T16:41:25.418Z,5.23
2018-08-22T16:43:53.606Z,5.50
2018-08-22T16:46:21.853Z,4.97
2018-08-22T16:48:51.956Z,4.67
2018-08-22T16:51:21.122Z,4.90
2018-08-22T16:54:02.472Z,5.10
2018-08-22T16:56:31.961Z,4.60
2018-08-22T16:59:08.268Z,4.53
2018-08-22T17:01:37.061Z,4.27
2018-08-22T17:04:05.282Z,4.70
2018-08-22T17:06:33.445Z,5.23
2018-08-22T17:09:01.591Z,5.10
2018-08-22T17:11:29.758Z,5.53
2018-08-22T17:13:57.775Z,5.10
2018-08-22T17:16:26.198Z,5.67
2018-08-22T17:18:54.348Z,5.40
2018-08-22T17:21:22.525Z,6.53
2018-08-22T17:23:50.894Z,5.90
2018-08-22T17:26:20.031Z,5.40
2018-08-22T17:28:48.987Z,6.30
2018-08-22T17:31:17.805Z,7.47
2018-08-22T17:33:51.953Z,7.00
2018-08-22T17:36:20.189Z,7.23
2018-08-22T17:38:49.579Z,6.97
2018-08-22T17:41:19.913Z,6.60
2018-08-22T17:44:13.550Z,6.20
2018-08-22T17:46:50.264Z,6.70
2018-08-22T17:49:18.441Z,5.70
2018-08-22T17:51:57.865Z,6.20
2018-08-22T17:54:26.452Z,5.90
2018-08-22T17:57:07.225Z,6.23
2018-08-22T17:59:35.416Z,10.00
2018-08-22T18:02:03.603Z,7.37
2018-08-22T18:04:43.210Z,6.43
2018-08-22T18:07:11.376Z,5.63
2018-08-22T18:09:39.576Z,6.67
2018-08-22T18:12:07.544Z,5.93
2018-08-22T18:14:35.827Z,6.00
2018-08-22T18:17:05.917Z,7.00
2018-08-22T18:19:35.934Z,7.03
2018-08-22T18:22:04.166Z,6.70
2018-08-22T18:24:32.368Z,7.30
2018-08-22T18:27:03.045Z,7.37
2018-08-22T18:29:31.245Z,7.00
2018-08-22T18:31:59.433Z,6.37
2018-08-22T18:34:27.618Z,6.80
2018-08-22T18:36:55.784Z,6.40
2018-08-22T18:39:23.956Z,6.00
2018-08-22T18:41:52.119Z,6.03
2018-08-22T18:44:21.107Z,6.17
2018-08-22T18:46:49.271Z,6.20
2018-08-22T18:49:17.430Z,6.00
2018-08-22T18:51:46.308Z,5.83
2018-08-22T18:54:14.453Z,6.50
2018-08-22T18:56:42.617Z,6.10
2018-08-22T18:59:25.784Z,6.53
2018-08-22T19:01:53.940Z,7.07
2018-08-22T19:04:22.087Z,6.30
2018-08-22T19:06:50.295Z,6.60
2018-08-22T19:09:18.701Z,6.33
2018-08-22T19:11:46.865Z,6.40
2018-08-22T19:14:15.052Z,6.43
2018-08-22T19:16:42.968Z,6.77
2018-08-22T19:19:11.193Z,6.60
2018-08-22T19:21:39.381Z,6.37
2018-08-22T19:24:07.640Z,6.77
2018-08-22T19:26:35.824Z,6.60
2018-08-22T19:29:05.177Z,6.50
2018-08-22T19:31:33.304Z,7.20
2018-08-22T19:34:01.433Z,5.83
2018-08-22T19:36:29.600Z,6.70
2018-08-22T19:38:57.744Z,7.60
2018-08-22T19:41:28.378Z,7.03
2018-08-22T19:43:56.709Z,7.63
2018-08-22T19:46:24.889Z,7.70
2018-08-22T19:48:52.836Z,6.60
2018-08-22T19:51:21.037Z,6.43
2018-08-22T19:53:59.478Z,6.37
2018-08-22T19:56:28.113Z,8.50
2018-08-22T19:58:56.304Z,7.20
2018-08-22T20:01:24.458Z,7.50
2018-08-22T20:03:53.112Z,7.50
2018-08-22T20:06:21.815Z,7.00
2018-08-22T20:08:52.137Z,7.30
2018-08-22T20:11:20.389Z,8.03
2018-08-22T20:13:49.876Z,7.50
2018-08-22T20:16:19.037Z,7.00
2018-08-22T20:18:46.999Z,6.80
2018-08-22T20:21:21.322Z,6.60
2018-08-22T20:23:50.925Z,7.53
2018-08-22T20:26:19.036Z,7.00
2018-08-22T20:28:51.431Z,7.30
2018-08-22T20:31:19.640Z,7.27
2018-08-22T20:33:59.138Z,7.00
2018-08-22T20:36:27.512Z,7.00
2018-08-22T20:38:57.854Z,7.50
2018-08-22T20:41:26.020Z,7.27
2018-08-22T20:43:54.202Z,6.53
2018-08-22T20:46:22.349Z,6.90
2018-08-22T20:48:51.297Z,6.60
2018-08-22T20:51:24.694Z,7.43
2018-08-22T20:54:02.301Z,6.97
2018-08-22T20:56:31.134Z,6.93
2018-08-22T20:58:59.343Z,6.37
2018-08-22T21:01:30.099Z,7.50
2018-08-22T21:03:58.593Z,6.20
2018-08-22T21:06:26.759Z,7.30
2018-08-22T21:08:54.926Z,7.63
2018-08-22T21:11:23.112Z,7.00
2018-08-22T21:13:51.334Z,7.20
2018-08-22T21:16:19.465Z,7.27
2018-08-22T21:18:54.192Z,7.60
2018-08-22T21:21:24.975Z,7.40
2018-08-22T21:23:52.995Z,6.80
2018-08-22T21:26:31.028Z,7.17
2018-08-22T21:28:59.397Z,7.13
2018-08-22T21:31:27.553Z,6.40
2018-08-22T21:33:55.762Z,7.90
2018-08-22T21:36:23.921Z,7.20
2018-08-22T21:38:52.094Z,7.20
2018-08-22T21:41:20.073Z,7.70
2018-08-22T21:43:48.281Z,7.30
2018-08-22T21:46:16.458Z,8.00
2018-08-22T21:48:44.392Z,7.30
2018-08-22T21:51:12.568Z,7.67
2018-08-22T21:53:40.744Z,7.23
2018-08-22T21:56:08.922Z,7.13
2018-08-22T21:58:37.066Z,7.40
2018-08-22T22:01:05.226Z,7.83
2018-08-22T22:03:33.148Z,7.67
2018-08-22T22:06:02.426Z,7.20
2018-08-22T22:08:30.773Z,7.17
2018-08-22T22:11:03.538Z,6.80
2018-08-22T22:13:31.829Z,7.13
2018-08-22T22:16:02.568Z,7.00
2018-08-22T22:18:31.457Z,8.30
2018-08-22T22:21:13.781Z,7.63
2018-08-22T22:23:44.514Z,8.07
2018-08-22T22:26:13.098Z,7.47
2018-08-22T22:28:41.293Z,7.60
2018-08-22T22:31:13.109Z,7.23
2018-08-22T22:33:52.502Z,8.10
2018-08-22T22:36:20.790Z,8.10
2018-08-22T22:38:48.994Z,7.40
2018-08-22T22:41:16.900Z,7.80
2018-08-22T22:43:45.085Z,7.87
2018-08-22T22:46:13.236Z,8.30
2018-08-22T22:48:42.422Z,7.47
2018-08-22T22:51:10.908Z,7.20
2018-08-22T22:53:39.125Z,8.20
2018-08-22T22:56:07.452Z,8.47
2018-08-22T22:58:36.441Z,7.77
2018-08-22T23:01:05.041Z,8.17
2018-08-22T23:03:33.203Z,8.53
2018-08-22T23:06:01.361Z,8.43
2018-08-22T23:08:29.598Z,8.30
2018-08-22T23:10:57.772Z,8.00
2018-08-22T23:13:27.200Z,7.90
2018-08-22T23:15:55.397Z,8.00
2018-08-22T23:18:23.575Z,7.83
2018-08-22T23:20:52.642Z,8.27
2018-08-22T23:23:29.801Z,8.30
2018-08-22T23:26:32.943Z,8.80
2018-08-22T23:29:01.105Z,7.97
2018-08-22T23:31:29.286Z,8.50
2018-08-22T23:33:57.443Z,9.00
2018-08-22T23:36:25.609Z,8.57
2018-08-22T23:38:53.775Z,9.37
2018-08-22T23:41:21.933Z,9.80
2018-08-22T23:43:51.221Z,7.63
2018-08-22T23:46:19.495Z,9.30
2018-08-22T23:48:53.198Z,8.93
2018-08-22T23:51:21.119Z,9.47
2018-08-22T23:53:49.278Z,10.20
2018-08-22T23:56:21.944Z,10.17
2018-08-22T23:58:50.756Z,9.10
